Time;durP1;ratioP1;P1;durP2;ratioP2;P2;SDS_P1;SDS_P2;PMS_P1;PMS_P2;Temp;Humidity;BMP_temperature;BMP_pressure;BME280_temperature;BME280_humidity;BME280_pressure;Samples;Min_cycle;Max_cycle;Signal;HPM_P1;HPM_P2
2023/04/21 00:01:07;;;;;;;1999.90;999.90;;;9.40;99.90;;;;;;5090891;28;20083;-94
2023/04/21 00:03:32;;;;;;;1999.90;999.90;;;9.40;99.90;;;;;;5075091;28;20129;-95
2023/04/21 00:05:58;;;;;;;1999.90;999.90;;;9.40;99.90;;;;;;5093175;28;20044;-94
2023/04/21 00:08:25;;;;;;;1999.90;999.90;;;9.40;99.90;;;;;;5093760;28;20036;-91
2023/04/21 00:10:51;;;;;;;1999.90;999.90;;;9.40;99.90;;;;;;5092241;28;20039;-94
2023/04/21 00:13:17;;;;;;;1999.90;999.90;;;9.40;99.90;;;;;;5095677;28;20044;-94
2023/04/21 00:15:43;;;;;;;1999.90;999.90;;;9.40;99.90;;;;;;5097870;28;20040;-94
2023/04/21 00:18:09;;;;;;;1999.90;999.90;;;9.40;99.90;;;;;;5091639;28;20082;-93
2023/04/21 00:20:35;;;;;;;1999.90;999.90;;;9.40;99.90;;;;;;5091503;28;20068;-91
2023/04/21 00:23:02;;;;;;;1999.90;999.90;;;9.40;99.90;;;;;;5092679;28;20100;-91
2023/04/21 00:25:27;;;;;;;1999.90;999.90;;;9.40;99.90;;;;;;5093047;28;20047;-93
2023/04/21 00:27:53;;;;;;;1999.90;999.90;;;9.40;99.90;;;;;;5086324;28;20037;-93
2023/04/21 00:30:19;;;;;;;1999.90;999.90;;;9.40;99.90;;;;;;5085399;28;20036;-92
2023/04/21 00:32:44;;;;;;;1999.90;999.90;;;9.40;99.90;;;;;;5084889;28;20028;-90
2023/04/21 00:35:10;;;;;;;1999.90;999.90;;;9.40;99.90;;;;;;5070716;28;20043;-95
2023/04/21 00:37:35;;;;;;;1999.90;999.90;;;9.40;99.90;;;;;;5090794;28;20040;-92
2023/04/21 00:40:03;;;;;;;1999.90;999.90;;;9.30;99.90;;;;;;5078121;28;20043;-91
2023/04/21 00:42:28;;;;;;;1999.90;999.90;;;9.30;99.90;;;;;;5088084;28;20039;-91
2023/04/21 00:44:54;;;;;;;1999.90;999.90;;;9.30;99.90;;;;;;5092367;28;20036;-94
2023/04/21 00:47:20;;;;;;;1999.90;999.90;;;9.30;99.90;;;;;;5093566;28;20169;-91
2023/04/21 00:49:46;;;;;;;1999.90;999.90;;;9.20;99.90;;;;;;5093047;28;20117;-92
2023/04/21 00:52:14;;;;;;;1999.90;999.90;;;9.20;99.90;;;;;;5092651;28;20074;-93
2023/04/21 00:54:40;;;;;;;1999.90;999.90;;;9.20;99.90;;;;;;5094623;28;20062;-91
2023/04/21 00:57:08;;;;;;;1999.90;999.90;;;9.20;99.90;;;;;;5091674;28;20044;-91
2023/04/21 00:59:35;;;;;;;1999.90;999.90;;;9.10;99.90;;;;;;5091813;28;20044;-93
2023/04/21 01:02:00;;;;;;;1999.90;999.90;;;9.10;99.90;;;;;;5093512;28;20400;-90
2023/04/21 01:04:27;;;;;;;1999.90;999.90;;;9.10;99.90;;;;;;5091992;28;20077;-93
2023/04/21 01:06:53;;;;;;;1999.90;999.90;;;9.10;99.90;;;;;;5093894;28;20036;-93
2023/04/21 01:09:19;;;;;;;1999.90;999.90;;;9.10;99.90;;;;;;5093387;28;20035;-93
2023/04/21 01:12:02;;;;;;;1999.90;999.90;;;9.10;99.90;;;;;;5075056;28;20040;-91
2023/04/21 01:14:28;;;;;;;1999.90;999.90;;;9.10;99.90;;;;;;5072155;28;20048;-92
2023/04/21 01:16:53;;;;;;;1999.90;999.90;;;9.10;99.90;;;;;;5072662;28;20480;-93
2023/04/21 01:19:19;;;;;;;1999.90;999.90;;;9.10;99.90;;;;;;5074892;28;20043;-94
2023/04/21 01:21:45;;;;;;;1999.90;999.90;;;9.10;99.90;;;;;;5092819;28;20459;-90
2023/04/21 01:24:11;;;;;;;1999.90;999.90;;;9.00;99.90;;;;;;5092060;28;20044;-92
2023/04/21 01:26:38;;;;;;;1999.90;999.90;;;9.10;99.90;;;;;;5092340;28;20102;-92
2023/04/21 01:29:03;;;;;;;1999.90;999.90;;;9.00;99.90;;;;;;5099931;28;20125;-93
2023/04/21 01:31:29;;;;;;;1999.90;999.90;;;9.00;99.90;;;;;;5098822;28;20064;-92
2023/04/21 01:33:55;;;;;;;1999.90;999.90;;;9.10;99.90;;;;;;5107086;28;20068;-92
2023/04/21 01:36:20;;;;;;;1999.90;999.90;;;9.00;99.90;;;;;;5108000;28;20043;-91
2023/04/21 01:38:47;;;;;;;1999.90;999.90;;;9.00;99.90;;;;;;5109200;28;20050;-93
2023/04/21 01:41:12;;;;;;;1999.90;999.90;;;9.10;99.90;;;;;;5113295;28;20032;-93
2023/04/21 01:43:38;;;;;;;1999.90;999.90;;;9.10;99.90;;;;;;5116959;28;20051;-94
2023/04/21 01:46:05;;;;;;;1999.90;999.90;;;9.10;99.90;;;;;;5099534;28;20046;-90
2023/04/21 01:48:30;;;;;;;1999.90;999.90;;;9.00;99.90;;;;;;5097736;28;20043;-92
2023/04/21 01:50:56;;;;;;;1999.90;999.90;;;9.00;99.90;;;;;;5098313;28;20060;-94
2023/04/21 01:53:22;;;;;;;1999.90;999.90;;;9.00;99.90;;;;;;5098576;28;20028;-93
2023/04/21 01:55:48;;;;;;;1999.90;999.90;;;9.00;99.90;;;;;;5099719;28;20032;-94
2023/04/21 01:58:13;;;;;;;1999.90;999.90;;;9.00;99.90;;;;;;5096982;28;20032;-90
2023/04/21 02:00:39;;;;;;;1999.90;999.90;;;8.90;99.90;;;;;;5077627;28;20040;-93
2023/04/21 02:03:05;;;;;;;1999.90;999.90;;;9.00;99.90;;;;;;5094155;28;20051;-94
2023/04/21 02:05:31;;;;;;;1999.90;999.90;;;9.00;99.90;;;;;;5097160;28;20035;-93
2023/04/21 02:07:56;;;;;;;1999.90;999.90;;;9.00;99.90;;;;;;5095998;28;20473;-96
2023/04/21 02:10:22;;;;;;;1999.90;999.90;;;8.90;99.90;;;;;;5096086;28;20051;-95
2023/04/21 02:12:48;;;;;;;1999.90;999.90;;;8.90;99.90;;;;;;5094409;28;20469;-92
2023/04/21 02:15:13;;;;;;;1999.90;999.90;;;8.90;99.90;;;;;;5094990;28;20055;-92
2023/04/21 02:17:39;;;;;;;1999.90;999.90;;;8.90;99.90;;;;;;5094957;28;20040;-93
2023/04/21 02:20:06;;;;;;;1999.90;999.90;;;8.90;99.90;;;;;;5093773;28;20115;-89
2023/04/21 02:22:31;;;;;;;1999.90;999.90;;;8.90;99.90;;;;;;5095545;28;20115;-95
2023/04/21 02:24:57;;;;;;;1999.90;999.90;;;8.90;99.90;;;;;;5094323;28;20464;-92
2023/04/21 02:27:22;;;;;;;1999.90;999.90;;;8.90;99.90;;;;;;5084128;28;20484;-92
2023/04/21 02:29:48;;;;;;;1999.90;999.90;;;8.90;99.90;;;;;;5081010;28;20036;-93
2023/04/21 02:32:14;;;;;;;1999.90;999.90;;;8.90;99.90;;;;;;5094751;28;20062;-92
2023/04/21 02:34:40;;;;;;;1999.90;999.90;;;8.90;99.90;;;;;;5095673;28;20043;-94
2023/04/21 02:37:06;;;;;;;1999.90;999.90;;;8.80;99.90;;;;;;5095268;28;20357;-94
2023/04/21 02:39:32;;;;;;;1999.90;999.90;;;8.80;99.90;;;;;;5093531;28;20067;-95
2023/04/21 02:41:57;;;;;;;1999.90;999.90;;;8.80;99.90;;;;;;5094284;28;20040;-94
2023/04/21 02:44:23;;;;;;;1999.90;999.90;;;8.80;99.90;;;;;;5096005;28;20036;-91
2023/04/21 02:46:49;;;;;;;1999.90;999.90;;;8.80;99.90;;;;;;5095998;28;20036;-94
2023/04/21 02:49:14;;;;;;;1999.90;999.90;;;8.80;99.90;;;;;;5093066;28;20123;-93
2023/04/21 02:51:40;;;;;;;1999.90;999.90;;;8.80;99.90;;;;;;5094277;28;20115;-95
2023/04/21 02:54:06;;;;;;;1999.90;999.90;;;8.80;99.90;;;;;;5094571;28;20044;-95
2023/04/21 02:56:33;;;;;;;1999.90;999.90;;;8.80;99.90;;;;;;5094350;28;20078;-93
2023/04/21 02:58:59;;;;;;;1999.90;999.90;;;8.80;99.90;;;;;;5094121;28;20381;-93
2023/04/21 03:01:25;;;;;;;1999.90;999.90;;;8.80;99.90;;;;;;5055918;28;20045;-94
2023/04/21 03:03:50;;;;;;;1999.90;999.90;;;8.80;99.90;;;;;;5074007;28;20642;-95
2023/04/21 03:06:16;;;;;;;1999.90;999.90;;;8.80;99.90;;;;;;5074883;28;20111;-90
2023/04/21 03:08:42;;;;;;;1999.90;999.90;;;8.90;99.90;;;;;;5074395;28;20040;-90
2023/04/21 03:11:07;;;;;;;1999.90;999.90;;;8.90;99.90;;;;;;5088761;28;20047;-93
2023/04/21 03:13:33;;;;;;;1999.90;999.90;;;8.90;99.90;;;;;;5095280;28;20044;-93
2023/04/21 03:15:58;;;;;;;1999.90;999.90;;;8.90;99.90;;;;;;5092273;28;20070;-94
2023/04/21 03:18:24;;;;;;;1999.90;999.90;;;8.90;99.90;;;;;;5094775;28;20040;-94
2023/04/21 03:20:50;;;;;;;1999.90;999.90;;;8.90;99.90;;;;;;5090264;28;20531;-95
2023/04/21 03:23:16;;;;;;;1999.90;999.90;;;8.90;99.90;;;;;;5074299;28;20091;-90
2023/04/21 03:25:42;;;;;;;1999.90;999.90;;;8.80;99.90;;;;;;5088519;28;20036;-93
2023/04/21 03:28:07;;;;;;;1999.90;999.90;;;8.80;99.90;;;;;;5095373;28;20408;-93
2023/04/21 03:30:33;;;;;;;1999.90;999.90;;;8.90;99.90;;;;;;5094638;28;20028;-92
2023/04/21 03:32:59;;;;;;;1999.90;999.90;;;8.80;99.90;;;;;;5093710;28;20089;-92
2023/04/21 03:35:24;;;;;;;1999.90;999.90;;;8.90;99.90;;;;;;5095503;28;20032;-94
2023/04/21 03:37:50;;;;;;;1999.90;999.90;;;8.90;99.90;;;;;;5090531;28;20105;-93
2023/04/21 03:40:16;;;;;;;1999.90;999.90;;;8.90;99.90;;;;;;5072898;28;20051;-95
2023/04/21 03:42:41;;;;;;;1999.90;999.90;;;9.00;99.90;;;;;;5074446;28;20047;-88
2023/04/21 03:45:09;;;;;;;1999.90;999.90;;;8.90;99.90;;;;;;5088148;28;20047;-93
2023/04/21 03:47:35;;;;;;;1999.90;999.90;;;8.90;99.90;;;;;;5077363;28;20043;-92
2023/04/21 03:50:03;;;;;;;1999.90;999.90;;;9.00;99.90;;;;;;5094077;28;20101;-90
2023/04/21 03:52:29;;;;;;;1999.90;999.90;;;8.90;99.90;;;;;;5094329;28;20078;-92
2023/04/21 03:54:54;;;;;;;1999.90;999.90;;;8.90;99.90;;;;;;5094216;28;20036;-92
2023/04/21 03:57:20;;;;;;;1999.90;999.90;;;8.90;99.90;;;;;;5096342;28;20069;-94
2023/04/21 03:59:45;;;;;;;1999.90;999.90;;;8.90;99.90;;;;;;5097785;28;20050;-93
2023/04/21 04:02:11;;;;;;;1999.90;999.90;;;8.90;99.90;;;;;;5097503;28;20191;-93
2023/04/21 04:04:36;;;;;;;1999.90;999.90;;;8.90;99.90;;;;;;5098344;28;20130;-93
2023/04/21 04:07:02;;;;;;;1999.90;999.90;;;8.90;99.90;;;;;;5098515;28;20148;-93
2023/04/21 04:09:28;;;;;;;1999.90;999.90;;;8.90;99.90;;;;;;5099153;28;20124;-95
2023/04/21 04:11:54;;;;;;;1999.90;999.90;;;8.80;99.90;;;;;;5107007;28;20032;-92
2023/04/21 04:14:19;;;;;;;1999.90;999.90;;;8.80;99.90;;;;;;5092601;28;20123;-93
2023/04/21 04:16:45;;;;;;;1999.90;999.90;;;8.80;99.90;;;;;;5074048;28;20028;-93
2023/04/21 04:19:10;;;;;;;1999.90;999.90;;;8.80;99.90;;;;;;5100136;28;20066;-92
2023/04/21 04:21:36;;;;;;;1999.90;999.90;;;8.80;99.90;;;;;;5115374;28;20032;-93
2023/04/21 04:24:04;;;;;;;1999.90;999.90;;;8.80;99.90;;;;;;5107214;28;20048;-94
2023/04/21 04:26:32;;;;;;;1999.90;999.90;;;8.80;99.90;;;;;;5115548;28;20040;-93
2023/04/21 04:28:59;;;;;;;1999.90;999.90;;;8.80;99.90;;;;;;5115981;28;20028;-92
2023/04/21 04:31:24;;;;;;;1999.90;999.90;;;8.80;99.90;;;;;;5115803;28;20055;-94
2023/04/21 04:33:53;;;;;;;1999.90;999.90;;;8.80;99.90;;;;;;5114831;28;20028;-95
2023/04/21 04:36:18;;;;;;;1999.90;999.90;;;8.70;99.90;;;;;;5115926;28;20048;-91
2023/04/21 04:38:44;;;;;;;1999.90;999.90;;;8.70;99.90;;;;;;5115398;28;20058;-91
2023/04/21 04:41:11;;;;;;;1999.90;999.90;;;8.70;99.90;;;;;;5113291;28;20047;-95
2023/04/21 04:43:40;;;;;;;1999.90;999.90;;;8.60;99.90;;;;;;5112698;28;20054;-94
2023/04/21 04:46:07;;;;;;;1999.90;999.90;;;8.60;99.90;;;;;;5113162;28;20062;-93
2023/04/21 04:48:33;;;;;;;1999.90;999.90;;;8.60;99.90;;;;;;5114364;28;20495;-94
2023/04/21 04:50:59;;;;;;;1999.90;999.90;;;8.60;99.90;;;;;;5113978;28;20051;-92
2023/04/21 04:53:27;;;;;;;1999.90;999.90;;;8.60;99.90;;;;;;5114080;28;20051;-94
2023/04/21 04:55:53;;;;;;;1999.90;999.90;;;8.60;99.90;;;;;;5115498;28;20036;-92
2023/04/21 04:58:18;;;;;;;1999.90;999.90;;;8.60;99.90;;;;;;5110220;28;20093;-95
2023/04/21 05:00:44;;;;;;;1999.90;999.90;;;8.70;99.90;;;;;;5099522;28;20032;-93
2023/04/21 05:03:09;;;;;;;1999.90;999.90;;;8.70;99.90;;;;;;5105379;28;20044;-95
2023/04/21 05:05:35;;;;;;;1999.90;999.90;;;8.80;99.90;;;;;;5100170;28;20048;-95
2023/04/21 05:08:00;;;;;;;1999.90;999.90;;;8.80;99.90;;;;;;5103517;28;20043;-90
2023/04/21 05:10:26;;;;;;;1999.90;999.90;;;8.80;99.90;;;;;;5098936;28;20081;-92
2023/04/21 05:12:52;;;;;;;1999.90;999.90;;;8.80;99.90;;;;;;5097575;28;20059;-92
2023/04/21 05:15:17;;;;;;;1999.90;999.90;;;8.90;99.90;;;;;;5094711;28;20081;-92
2023/04/21 05:17:43;;;;;;;1999.90;999.90;;;8.90;99.90;;;;;;5092644;28;20404;-93
2023/04/21 05:20:09;;;;;;;1999.90;999.90;;;8.90;99.90;;;;;;5092423;28;20044;-91
2023/04/21 05:22:38;;;;;;;1999.90;999.90;;;8.90;99.90;;;;;;5073287;28;20040;-92
2023/04/21 05:25:04;;;;;;;1999.90;999.90;;;8.90;99.90;;;;;;5090187;28;20036;-91
2023/04/21 05:27:30;;;;;;;1999.90;999.90;;;8.90;99.90;;;;;;5095995;28;20127;-92
2023/04/21 05:29:56;;;;;;;1999.90;999.90;;;8.90;99.90;;;;;;5091793;28;20115;-91
2023/04/21 05:32:22;;;;;;;1999.90;999.90;;;9.00;99.90;;;;;;5091471;28;20036;-91
2023/04/21 05:34:47;;;;;;;1999.90;999.90;;;9.00;99.90;;;;;;5092718;28;20032;-90
2023/04/21 05:37:13;;;;;;;1999.90;999.90;;;9.00;99.90;;;;;;5091924;28;20044;-90
2023/04/21 05:39:38;;;;;;;1999.90;999.90;;;9.10;99.90;;;;;;5093597;28;20055;-88
2023/04/21 05:42:04;;;;;;;1999.90;999.90;;;9.10;99.90;;;;;;5090421;28;20369;-87
2023/04/21 05:44:29;;;;;;;1999.90;999.90;;;9.20;99.90;;;;;;5089402;28;20043;-88
2023/04/21 05:46:55;;;;;;;1999.90;999.90;;;9.30;99.90;;;;;;5091989;28;20147;-87
2023/04/21 05:49:21;;;;;;;1999.90;999.90;;;9.30;99.90;;;;;;5091417;28;20059;-88
2023/04/21 05:51:46;;;;;;;1999.90;999.90;;;9.30;99.90;;;;;;5092559;28;20101;-87
2023/04/21 05:54:12;;;;;;;1999.90;999.90;;;9.40;99.90;;;;;;5087649;28;20040;-87
2023/04/21 05:56:38;;;;;;;1999.90;999.90;;;9.40;99.90;;;;;;5093413;28;20032;-88
2023/04/21 05:59:05;;;;;;;1999.90;999.90;;;9.50;99.90;;;;;;5093035;28;20107;-87
2023/04/21 06:01:31;;;;;;;1999.90;999.90;;;9.50;99.90;;;;;;5096285;28;20123;-91
2023/04/21 06:03:57;;;;;;;1999.90;999.90;;;9.60;99.90;;;;;;5094181;28;20047;-87
2023/04/21 06:06:25;;;;;;;1999.90;999.90;;;9.60;99.90;;;;;;5096051;28;20492;-89
2023/04/21 06:08:50;;;;;;;1999.90;999.90;;;9.70;99.90;;;;;;5096407;28;20189;-88
2023/04/21 06:11:16;;;;;;;1999.90;999.90;;;9.70;99.90;;;;;;5090453;28;20733;-88
2023/04/21 06:13:42;;;;;;;1999.90;999.90;;;9.80;99.90;;;;;;5084299;28;20687;-86
2023/04/21 06:16:07;;;;;;;1999.90;999.90;;;9.80;99.90;;;;;;5096005;28;20044;-88
2023/04/21 06:18:33;;;;;;;1999.90;999.90;;;10.00;99.90;;;;;;5093888;28;20046;-87
2023/04/21 06:20:58;;;;;;;1999.90;999.90;;;10.10;99.90;;;;;;5073504;28;20036;-86
2023/04/21 06:23:24;;;;;;;1999.90;999.90;;;10.20;99.90;;;;;;5091643;28;20456;-86
2023/04/21 06:26:04;;;;;;;1999.90;999.90;;;10.30;99.90;;;;;;5073488;28;20127;-87
2023/04/21 06:28:31;;;;;;;1999.90;999.90;;;10.40;99.90;;;;;;5072143;28;20175;-90
2023/04/21 06:30:57;;;;;;;1999.90;999.90;;;10.50;99.90;;;;;;5089054;28;20365;-90
2023/04/21 06:33:23;;;;;;;1999.90;999.90;;;10.70;99.90;;;;;;5093527;28;20032;-89
2023/04/21 06:35:48;;;;;;;1999.90;999.90;;;10.70;99.90;;;;;;5091215;28;20047;-94
2023/04/21 06:38:14;;;;;;;1999.90;999.90;;;10.80;99.90;;;;;;5091702;28;20487;-91
2023/04/21 06:40:40;;;;;;;1999.90;999.90;;;10.90;99.90;;;;;;5089619;28;20409;-88
2023/04/21 06:43:06;;;;;;;1999.90;999.90;;;11.00;99.90;;;;;;5089894;28;20460;-92
2023/04/21 06:45:32;;;;;;;1999.90;999.90;;;11.10;99.90;;;;;;5109400;28;20214;-94
2023/04/21 06:47:57;;;;;;;1999.90;999.90;;;11.20;99.90;;;;;;5098046;28;20040;-96
2023/04/21 06:50:23;;;;;;;1999.90;999.90;;;11.30;99.90;;;;;;5090483;28;20062;-89
2023/04/21 06:52:49;;;;;;;1999.90;999.90;;;11.30;99.90;;;;;;5090068;28;20397;-91
2023/04/21 06:55:15;;;;;;;1999.90;999.90;;;11.30;99.90;;;;;;5089594;28;20442;-93
2023/04/21 06:57:40;;;;;;;1999.90;999.90;;;11.40;99.90;;;;;;5090104;28;20048;-89
2023/04/21 07:00:06;;;;;;;1999.90;999.90;;;11.50;99.90;;;;;;5092203;28;20100;-89
2023/04/21 07:02:32;;;;;;;1999.90;999.90;;;11.50;99.90;;;;;;5073943;28;20048;-90
2023/04/21 07:04:57;;;;;;;1999.90;999.90;;;11.60;99.90;;;;;;5088654;28;20575;-92
2023/04/21 07:07:23;;;;;;;1999.90;999.90;;;11.70;99.90;;;;;;5095426;28;20055;-96
2023/04/21 07:09:49;;;;;;;1999.90;999.90;;;11.80;99.90;;;;;;5093635;28;20081;-92
2023/04/21 07:12:14;;;;;;;1999.90;999.90;;;11.90;99.90;;;;;;5094645;28;20036;-95
2023/04/21 07:14:40;;;;;;;1999.90;999.90;;;12.00;99.90;;;;;;5099951;28;20044;-90
2023/04/21 07:17:06;;;;;;;1999.90;999.90;;;12.10;99.90;;;;;;5092020;28;20110;-87
2023/04/21 07:19:31;;;;;;;1999.90;999.90;;;12.10;99.90;;;;;;5096028;28;20130;-96
2023/04/21 07:21:57;;;;;;;1999.90;999.90;;;12.10;99.90;;;;;;5091330;28;20369;-95
2023/04/21 07:24:23;;;;;;;1999.90;999.90;;;12.20;99.90;;;;;;5095863;28;20040;-92
2023/04/21 07:26:49;;;;;;;1999.90;999.90;;;12.20;99.90;;;;;;5092136;28;20092;-94
2023/04/21 07:29:14;;;;;;;1999.90;999.90;;;12.30;99.90;;;;;;5099975;28;20125;-95
2023/04/21 07:31:40;;;;;;;1999.90;999.90;;;12.40;99.90;;;;;;5101932;28;20031;-95
2023/04/21 07:34:06;;;;;;;1999.90;999.90;;;12.40;99.90;;;;;;5104564;28;20475;-93
2023/04/21 07:36:31;;;;;;;1999.90;999.90;;;12.40;99.90;;;;;;5095192;28;20044;-93
2023/04/21 07:38:57;;;;;;;1999.90;999.90;;;12.50;99.90;;;;;;5092105;28;20028;-94
2023/04/21 07:41:22;;;;;;;1999.90;999.90;;;12.60;99.90;;;;;;5094249;28;20044;-91
2023/04/21 07:43:48;;;;;;;1999.90;999.90;;;12.60;99.90;;;;;;5093697;28;20068;-87
2023/04/21 07:46:13;;;;;;;1999.90;999.90;;;12.60;99.90;;;;;;5093142;28;20035;-93
2023/04/21 07:48:39;;;;;;;1999.90;999.90;;;12.60;99.90;;;;;;5090993;28;20065;-92
2023/04/21 07:51:05;;;;;;;1999.90;999.90;;;12.70;99.90;;;;;;5084507;28;20107;-93
2023/04/21 07:53:31;;;;;;;1999.90;999.90;;;12.70;99.90;;;;;;5107770;28;20031;-92
2023/04/21 07:55:57;;;;;;;1999.90;999.90;;;12.80;99.90;;;;;;5113582;28;20057;-94
2023/04/21 07:58:23;;;;;;;1999.90;999.90;;;12.90;99.90;;;;;;5109415;28;20028;-94
2023/04/21 16:06:15;;;;;;;1999.90;999.90;;;20.20;93.10;;;;;;2620878;22;20039;-91
2023/04/21 16:08:41;;;;;;;1999.90;999.90;;;20.20;93.10;;;;;;5113957;28;20069;-93
2023/04/21 16:11:06;;;;;;;1999.90;999.90;;;20.30;93.10;;;;;;5100977;28;20071;-93
2023/04/21 16:13:33;;;;;;;1999.90;999.90;;;20.40;93.20;;;;;;5100166;28;20527;-93
2023/04/21 16:15:59;;;;;;;1999.90;999.90;;;20.40;92.80;;;;;;5082574;28;20032;-95
2023/04/21 16:18:24;;;;;;;1999.90;999.90;;;20.30;92.30;;;;;;5103792;28;20082;-92
2023/04/21 16:20:51;;;;;;;1999.90;999.90;;;20.20;92.20;;;;;;5104726;28;20043;-96
2023/04/21 16:23:19;;;;;;;1999.90;999.90;;;20.10;92.40;;;;;;5100403;28;20044;-93
2023/04/21 16:25:45;;;;;;;1999.90;999.90;;;20.00;92.10;;;;;;5100134;28;20137;-91
2023/04/21 16:28:10;;;;;;;1999.90;999.90;;;20.10;92.30;;;;;;5098494;28;20481;-89
2023/04/21 16:30:39;;;;;;;1999.90;999.90;;;20.40;91.80;;;;;;5104830;28;20059;-94
2023/04/21 16:33:05;;;;;;;1999.90;999.90;;;20.70;92.00;;;;;;5098254;28;20055;-93
2023/04/21 16:35:31;;;;;;;1999.90;999.90;;;20.70;90.80;;;;;;5102130;28;20020;-92
2023/04/21 16:37:56;;;;;;;1999.90;999.90;;;20.50;91.40;;;;;;5096747;28;20111;-89
2023/04/21 16:40:23;;;;;;;1999.90;999.90;;;20.50;91.30;;;;;;5103703;28;20086;-92
2023/04/21 16:42:48;;;;;;;1999.90;999.90;;;20.40;91.20;;;;;;5097041;28;20411;-93
2023/04/21 16:45:14;;;;;;;1999.90;999.90;;;20.20;91.00;;;;;;5101712;28;20032;-91
2023/04/21 16:47:40;;;;;;;1999.90;999.90;;;20.00;90.70;;;;;;5097355;28;20062;-91
2023/04/21 16:50:06;;;;;;;1999.90;999.90;;;19.80;90.50;;;;;;5096263;28;20032;-92
2023/04/21 16:52:33;;;;;;;1999.90;999.90;;;19.70;91.20;;;;;;5093331;28;20024;-95
2023/04/21 16:54:59;;;;;;;1999.90;999.90;;;19.60;91.30;;;;;;5097685;28;20036;-92
2023/04/21 16:57:27;;;;;;;1999.90;999.90;;;19.50;91.50;;;;;;5088887;28;20530;-87
2023/04/21 16:59:53;;;;;;;1999.90;999.90;;;19.40;91.30;;;;;;5074521;28;20040;-89
2023/04/21 17:02:18;;;;;;;1999.90;999.90;;;19.30;91.70;;;;;;5092354;28;20043;-91
2023/04/21 17:04:44;;;;;;;1999.90;999.90;;;19.30;91.40;;;;;;5076002;28;20131;-95
2023/04/21 17:07:10;;;;;;;1999.90;999.90;;;19.20;91.40;;;;;;5096326;28;20392;-96
2023/04/21 17:09:36;;;;;;;1999.90;999.90;;;19.20;91.70;;;;;;5096932;28;20043;-92
2023/04/21 17:12:02;;;;;;;1999.90;999.90;;;19.10;91.50;;;;;;5092129;28;20036;-95
2023/04/21 17:14:28;;;;;;;1999.90;999.90;;;19.00;91.30;;;;;;5100505;28;20059;-96
2023/04/21 17:16:54;;;;;;;1999.90;999.90;;;19.00;91.30;;;;;;5097177;28;20047;-93
2023/04/21 17:19:20;;;;;;;1999.90;999.90;;;18.90;91.40;;;;;;5092599;28;20044;-93
2023/04/21 17:21:46;;;;;;;1999.90;999.90;;;18.90;91.50;;;;;;5090022;28;20039;-90
2023/04/21 17:24:12;;;;;;;1999.90;999.90;;;18.80;91.80;;;;;;5093019;28;20501;-93
2023/04/21 17:26:38;;;;;;;1999.90;999.90;;;18.70;92.00;;;;;;5069254;28;20109;-92
2023/04/21 17:29:04;;;;;;;1999.90;999.90;;;18.70;91.90;;;;;;5088752;28;20036;-94
2023/04/21 17:31:31;;;;;;;1999.90;999.90;;;18.60;92.20;;;;;;5092069;28;20040;-96
2023/04/21 17:33:58;;;;;;;1999.90;999.90;;;18.60;92.30;;;;;;5092319;28;20035;-95
2023/04/21 17:36:28;;;;;;;1999.90;999.90;;;18.50;92.60;;;;;;5091686;28;20032;-93
2023/04/21 17:38:58;;;;;;;1999.90;999.90;;;18.40;93.80;;;;;;5083489;28;20037;-93
2023/04/21 17:41:24;;;;;;;1999.90;999.90;;;18.30;95.20;;;;;;5095032;28;20040;-93
2023/04/21 17:43:51;;;;;;;1999.90;999.90;;;18.10;96.10;;;;;;5091964;28;20128;-94
2023/04/21 17:46:17;;;;;;;1999.90;999.90;;;18.00;97.50;;;;;;5092071;28;20103;-94
2023/04/21 17:48:42;;;;;;;1999.90;999.90;;;17.90;98.30;;;;;;5096730;28;20084;-95
2023/04/21 17:51:09;;;;;;;1999.90;999.90;;;17.80;99.10;;;;;;5101850;28;20040;-94
2023/04/21 17:53:34;;;;;;;1999.90;999.90;;;17.70;99.50;;;;;;5102303;28;20071;-96
2023/04/21 17:56:00;;;;;;;1999.90;999.90;;;17.60;99.20;;;;;;5098306;28;20033;-93
2023/04/21 17:58:26;;;;;;;1999.90;999.90;;;17.60;98.50;;;;;;5100952;28;20122;-92
2023/04/21 18:00:52;;;;;;;1999.90;999.90;;;17.60;97.60;;;;;;5107120;28;20232;-96
2023/04/21 18:03:18;;;;;;;1999.90;999.90;;;17.70;96.60;;;;;;5103069;28;20538;-94
2023/04/21 18:05:44;;;;;;;1999.90;999.90;;;17.80;96.40;;;;;;5102914;28;20032;-95
2023/04/21 18:08:10;;;;;;;1999.90;999.90;;;17.80;96.10;;;;;;5100923;28;20055;-94
2023/04/21 18:10:36;;;;;;;1999.90;999.90;;;17.80;96.10;;;;;;5109446;28;20088;-96
2023/04/21 18:13:02;;;;;;;1999.90;999.90;;;17.70;96.00;;;;;;5102120;28;20392;-94
2023/04/21 18:15:28;;;;;;;1999.90;999.90;;;17.70;95.90;;;;;;5099078;28;20079;-95
2023/04/21 18:17:54;;;;;;;1999.90;999.90;;;17.80;95.50;;;;;;5103078;28;20047;-96
2023/04/21 18:20:19;;;;;;;1999.90;999.90;;;17.80;95.30;;;;;;5109817;28;20036;-95
2023/04/21 18:22:45;;;;;;;1999.90;999.90;;;17.70;95.20;;;;;;5112786;28;20082;-96
2023/04/21 18:25:11;;;;;;;1999.90;999.90;;;17.70;95.30;;;;;;5104889;28;20035;-95
2023/04/21 19:51:50;;;;;;;1999.90;999.90;;;16.40;99.90;;;;;;5011644;28;20053;-93
2023/04/21 19:54:16;;;;;;;1999.90;999.90;;;16.10;99.90;;;;;;5011716;28;20477;-95
2023/04/21 19:56:43;;;;;;;1999.90;999.90;;;15.70;99.90;;;;;;5014280;28;20045;-95
2023/04/21 19:59:09;;;;;;;1999.90;999.90;;;15.50;99.90;;;;;;5013193;28;20501;-94
2023/04/21 20:01:35;;;;;;;1999.90;999.90;;;15.20;99.90;;;;;;5012454;28;20034;-92
2023/04/21 20:04:01;;;;;;;1999.90;999.90;;;15.10;99.90;;;;;;4992579;28;20045;-93
2023/04/21 20:06:27;;;;;;;1999.90;999.90;;;15.00;99.90;;;;;;4992585;28;20034;-93
2023/04/21 20:08:56;;;;;;;1999.90;999.90;;;14.90;99.90;;;;;;5009613;28;20117;-94
2023/04/21 20:11:22;;;;;;;1999.90;999.90;;;14.70;99.90;;;;;;5012960;28;20037;-93
2023/04/21 20:13:48;;;;;;;1999.90;999.90;;;14.50;99.90;;;;;;5011219;28;20434;-92
2023/04/21 20:16:14;;;;;;;1999.90;999.90;;;14.30;99.90;;;;;;4991857;28;20051;-91
2023/04/21 20:18:40;;;;;;;1999.90;999.90;;;14.20;99.90;;;;;;5008990;28;20422;-91
2023/04/21 20:21:06;;;;;;;1999.90;999.90;;;14.10;99.90;;;;;;5010130;28;20099;-91
2023/04/21 20:23:31;;;;;;;1999.90;999.90;;;14.00;99.90;;;;;;4991691;28;20129;-91
2023/04/21 20:25:57;;;;;;;1999.90;999.90;;;13.90;99.90;;;;;;5009613;28;20037;-90
2023/04/21 20:28:23;;;;;;;1999.90;999.90;;;13.80;99.90;;;;;;5010379;28;20038;-90
2023/04/21 20:30:49;;;;;;;1999.90;999.90;;;13.80;99.90;;;;;;4992518;28;20116;-91
2023/04/21 20:33:16;;;;;;;1999.90;999.90;;;13.70;99.90;;;;;;5010365;28;20084;-93
2023/04/21 20:35:42;;;;;;;1999.90;999.90;;;13.60;99.90;;;;;;4996162;28;20125;-92
2023/04/21 20:38:09;;;;;;;1999.90;999.90;;;13.50;99.90;;;;;;5010094;28;20050;-92
2023/04/21 20:40:35;;;;;;;1999.90;999.90;;;13.50;99.90;;;;;;5015835;28;20398;-92
2023/04/21 20:43:02;;;;;;;1999.90;999.90;;;13.40;99.90;;;;;;4992896;28;20203;-93
2023/04/21 20:45:28;;;;;;;1999.90;999.90;;;13.40;99.90;;;;;;5016373;28;20038;-90
2023/04/21 20:47:55;;;;;;;1999.90;999.90;;;13.40;99.90;;;;;;4997157;28;20050;-92
2023/04/21 20:50:22;;;;;;;1999.90;999.90;;;13.30;99.90;;;;;;4991339;28;20101;-91
2023/04/21 20:52:49;;;;;;;1999.90;999.90;;;13.30;99.90;;;;;;4970473;28;20114;-90
2023/04/21 20:55:15;;;;;;;1999.90;999.90;;;13.20;99.90;;;;;;5003586;28;20043;-92
2023/04/21 20:57:41;;;;;;;1999.90;999.90;;;13.20;99.90;;;;;;5012693;28;20080;-91
2023/04/21 21:00:08;;;;;;;1999.90;999.90;;;13.20;99.90;;;;;;5004916;28;20034;-91
2023/04/21 21:02:34;;;;;;;1999.90;999.90;;;13.10;99.90;;;;;;5000732;28;20413;-91
2023/04/21 21:05:00;;;;;;;1999.90;999.90;;;13.10;99.90;;;;;;4981295;28;20097;-91
2023/04/21 21:07:25;;;;;;;1999.90;999.90;;;13.00;99.90;;;;;;5003149;28;20089;-91
2023/04/21 21:09:51;;;;;;;1999.90;999.90;;;13.00;99.90;;;;;;4991763;28;20034;-94
2023/04/21 21:12:17;;;;;;;1999.90;999.90;;;12.90;99.90;;;;;;4998188;28;20054;-92
2023/04/21 21:14:42;;;;;;;1999.90;999.90;;;12.90;99.90;;;;;;5005338;28;20030;-89
2023/04/21 21:17:11;;;;;;;1999.90;999.90;;;12.90;99.90;;;;;;4998317;28;20034;-87
2023/04/21 21:19:37;;;;;;;1999.90;999.90;;;12.90;99.90;;;;;;4994252;28;20081;-88
2023/04/21 21:22:03;;;;;;;1999.90;999.90;;;12.90;99.90;;;;;;4974938;28;20038;-89
2023/04/21 21:24:28;;;;;;;1999.90;999.90;;;12.90;99.90;;;;;;4988401;28;20076;-88
2023/04/21 21:26:56;;;;;;;1999.90;999.90;;;12.90;99.90;;;;;;4975807;28;20070;-87